Time;durP1;ratioP1;P1;durP2;ratioP2;P2;SDS_P1;SDS_P2;PMS_P1;PMS_P2;Temp;Humidity;BMP_temperature;BMP_pressure;BME280_temperature;BME280_humidity;BME280_pressure;Samples;Min_cycle;Max_cycle;Signal;HPM_P1;HPM_P2
2022/08/12 00:44:41;;;;;;;;;;;19.70;95.90;;;;;;5076092;28;19912;-67
2022/08/12 00:47:07;;;;;;;;;;;19.70;96.10;;;;;;5074995;28;19943;-68
2022/08/12 00:49:33;;;;;;;;;;;19.70;96.10;;;;;;5076843;28;19916;-67
2022/08/12 00:52:10;;;;;;;;;;;19.70;96.20;;;;;;5078223;28;19912;-69
2022/08/12 00:54:36;;;;;;;;;;;19.70;96.80;;;;;;5060860;28;20014;-68
2022/08/12 00:57:04;;;;;;;;;;;19.70;96.90;;;;;;5081581;28;20018;-69
2022/08/12 00:59:30;;;;;;;;;;;19.60;96.90;;;;;;5077343;28;20362;-68
2022/08/12 01:01:57;;;;;;;;;;;19.60;97.30;;;;;;5080544;28;19920;-68
2022/08/12 01:12:37;;;;;;;;;;;19.50;96.80;;;;;;5076662;28;20278;-70
2022/08/12 01:15:03;;;;;;;;;;;19.50;96.70;;;;;;5077625;28;19912;-66
2022/08/12 01:17:30;;;;;;;;;;;19.50;96.80;;;;;;5083549;28;19920;-68
2022/08/12 01:19:58;;;;;;;;;;;19.50;96.80;;;;;;5076583;28;19923;-65
2022/08/12 01:22:33;;;;;;;;;;;19.50;97.10;;;;;;5076985;28;20012;-67
2022/08/12 01:25:06;;;;;;;;;;;19.50;96.60;;;;;;5077175;28;19921;-68
2022/08/12 01:27:33;;;;;;;;;;;19.50;96.60;;;;;;5079015;28;19927;-68
2022/08/12 01:30:00;;;;;;;;;;;19.50;96.40;;;;;;5076419;28;19912;-70
2022/08/12 01:32:26;;;;;;;;;;;19.50;96.10;;;;;;5076080;28;19951;-68
2022/08/12 01:35:04;;;;;;;;;;;19.50;95.90;;;;;;5078540;28;19974;-67
2022/08/12 01:37:32;;;;;;;;;;;19.50;95.80;;;;;;5075922;28;19926;-68
2022/08/12 01:39:59;;;;;;;;;;;19.50;96.70;;;;;;5079648;28;19926;-67
2022/08/12 01:42:27;;;;;;;;;;;19.40;96.00;;;;;;5081730;28;19912;-69
2022/08/12 01:44:53;;;;;;;;;;;19.50;96.30;;;;;;5082201;28;19959;-67
2022/08/12 01:47:24;;;;;;;;;;;19.40;96.20;;;;;;5087374;28;20046;-68
2022/08/12 01:50:04;;;;;;;;;;;19.40;95.90;;;;;;5086483;28;19920;-69
2022/08/12 01:52:39;;;;;;;;;;;19.40;95.50;;;;;;5082219;28;19912;-69
2022/08/12 01:55:06;;;;;;;;;;;19.30;95.70;;;;;;5083351;28;20001;-69
2022/08/12 01:57:43;;;;;;;;;;;19.30;96.30;;;;;;5084071;28;19920;-69
2022/08/12 02:00:12;;;;;;;;;;;19.30;95.70;;;;;;5082516;28;19923;-69
2022/08/12 02:02:47;;;;;;;;;;;19.30;96.00;;;;;;5078130;28;19916;-67
2022/08/12 02:11:20;;;;;;;;;;;19.10;96.90;;;;;;5077774;28;20018;-67
2022/08/12 02:13:54;;;;;;;;;;;19.10;97.00;;;;;;5065235;28;19938;-67
2022/08/12 02:16:35;;;;;;;;;;;19.10;96.40;;;;;;5078607;28;19924;-68
2022/08/12 02:19:01;;;;;;;;;;;19.10;96.40;;;;;;5040283;28;21402;-67
2022/08/12 02:21:36;;;;;;;;;;;19.00;96.80;;;;;;5039919;28;19913;-68
2022/08/12 02:24:02;;;;;;;;;;;19.00;97.10;;;;;;5037881;28;20039;-68
2022/08/12 02:26:29;;;;;;;;;;;18.90;97.50;;;;;;5036710;28;20058;-68
2022/08/12 02:28:56;;;;;;;;;;;18.90;97.70;;;;;;5039120;28;19920;-69
2022/08/12 02:31:23;;;;;;;;;;;18.80;98.10;;;;;;5040774;28;19967;-67
2022/08/12 02:33:50;;;;;;;;;;;18.80;97.80;;;;;;5037348;28;20291;-68
2022/08/12 02:36:16;;;;;;;;;;;18.80;97.60;;;;;;5038464;28;20015;-67
2022/08/12 02:38:41;;;;;;;;;;;18.80;97.30;;;;;;5036968;28;19998;-69
2022/08/12 02:41:09;;;;;;;;;;;18.90;97.70;;;;;;5037315;28;20445;-67
2022/08/12 02:43:36;;;;;;;;;;;18.80;97.20;;;;;;5039439;28;19917;-69
2022/08/12 02:46:03;;;;;;;;;;;18.80;97.30;;;;;;5034730;28;19913;-67
2022/08/12 02:48:40;;;;;;;;;;;18.70;97.20;;;;;;5037254;28;19923;-68
2022/08/12 02:51:08;;;;;;;;;;;18.70;97.00;;;;;;5040580;28;19947;-69
2022/08/12 02:53:34;;;;;;;;;;;18.70;97.30;;;;;;5034541;28;20611;-68
2022/08/12 02:56:03;;;;;;;;;;;18.60;97.90;;;;;;5037715;28;19967;-68
2022/08/12 02:58:33;;;;;;;;;;;18.50;98.70;;;;;;5036390;28;20524;-68
2022/08/12 03:01:00;;;;;;;;;;;18.40;99.50;;;;;;5055398;28;19920;-68
2022/08/12 03:03:28;;;;;;;;;;;18.30;99.90;;;;;;5039415;28;19917;-67
2022/08/12 03:06:08;;;;;;;;;;;18.30;99.90;;;;;;5037003;28;20330;-67
2022/08/12 03:08:42;;;;;;;;;;;18.20;99.90;;;;;;5036088;28;19913;-68
2022/08/12 03:11:24;;;;;;;;;;;18.20;99.90;;;;;;5039377;28;19924;-67
2022/08/12 03:13:59;;;;;;;;;;;18.10;99.90;;;;;;5037806;28;20267;-66
2022/08/12 03:16:29;;;;;;;;;;;18.10;99.90;;;;;;5039723;28;19987;-67
2022/08/12 03:18:55;;;;;;;;;;;18.00;99.90;;;;;;5069250;28;20594;-67
2022/08/12 03:21:20;;;;;;;;;;;18.00;99.90;;;;;;5078185;28;19928;-67
2022/08/12 03:23:46;;;;;;;;;;;18.10;99.90;;;;;;5072740;28;19924;-68
2022/08/12 03:26:13;;;;;;;;;;;18.00;99.80;;;;;;5056891;28;19920;-67
2022/08/12 03:28:56;;;;;;;;;;;18.10;99.90;;;;;;5076429;28;19969;-68
2022/08/12 03:31:31;;;;;;;;;;;18.10;99.60;;;;;;5075858;28;19958;-69
2022/08/12 03:34:01;;;;;;;;;;;18.20;99.90;;;;;;5076596;28;19912;-67
2022/08/12 03:36:27;;;;;;;;;;;18.20;98.10;;;;;;5076751;28;19931;-67
2022/08/12 03:41:43;;;;;;;;;;;18.20;96.70;;;;;;5075269;28;21402;-66
2022/08/12 04:00:48;;;;;;;;;;;17.70;99.90;;;;;;5071642;28;20352;-68
2022/08/12 04:04:15;;;;;;;;;;;17.70;99.90;;;;;;5077523;28;19963;-68
2022/08/12 04:06:09;;;;;;;;;;;17.70;99.90;;;;;;5059040;28;19978;-72
2022/08/12 04:08:35;;;;;;;;;;;17.50;99.90;;;;;;5074200;28;20369;-67
2022/08/12 04:13:47;;;;;;;;;;;17.30;99.90;;;;;;5070940;28;19923;-69
2022/08/12 04:16:14;;;;;;;;;;;17.10;99.90;;;;;;5074204;28;19912;-67
2022/08/12 04:18:39;;;;;;;;;;;17.00;99.90;;;;;;5075751;28;20045;-67
2022/08/12 04:21:09;;;;;;;;;;;16.90;99.90;;;;;;5075584;28;19961;-68
2022/08/12 04:23:37;;;;;;;;;;;16.80;99.90;;;;;;5077546;28;19920;-68
2022/08/12 04:26:03;;;;;;;;;;;16.80;99.90;;;;;;5079844;28;19912;-68
2022/08/12 04:28:29;;;;;;;;;;;16.80;99.90;;;;;;5078468;28;19920;-67
2022/08/12 04:30:56;;;;;;;;;;;16.80;99.90;;;;;;5076644;28;19912;-68
2022/08/12 04:33:21;;;;;;;;;;;16.80;99.90;;;;;;5083995;28;19927;-68
2022/08/12 04:35:47;;;;;;;;;;;16.80;99.90;;;;;;5077681;28;19916;-68
2022/08/12 04:38:13;;;;;;;;;;;16.80;99.90;;;;;;5079726;28;19920;-68
2022/08/12 04:40:39;;;;;;;;;;;16.80;99.90;;;;;;5076617;28;19916;-68
2022/08/12 04:43:05;;;;;;;;;;;16.90;99.90;;;;;;5077099;28;19920;-67
2022/08/12 04:45:31;;;;;;;;;;;16.90;99.90;;;;;;5076953;28;20076;-66
2022/08/12 04:47:57;;;;;;;;;;;16.90;99.90;;;;;;5078260;28;20568;-68
2022/08/12 04:50:24;;;;;;;;;;;16.90;99.90;;;;;;5079562;28;19912;-67
2022/08/12 04:52:50;;;;;;;;;;;16.80;99.90;;;;;;5080832;28;19920;-67
2022/08/12 04:55:16;;;;;;;;;;;16.80;99.90;;;;;;5079485;28;20353;-68
2022/08/12 04:57:42;;;;;;;;;;;16.80;99.90;;;;;;5076727;28;19931;-68
2022/08/12 05:00:11;;;;;;;;;;;16.80;99.90;;;;;;5079166;28;19977;-68
2022/08/12 05:02:37;;;;;;;;;;;16.90;99.90;;;;;;5080414;28;20053;-68
2022/08/12 05:05:04;;;;;;;;;;;16.90;99.90;;;;;;5079701;28;19987;-68
2022/08/12 05:07:29;;;;;;;;;;;16.90;99.90;;;;;;5077284;28;19931;-68
2022/08/12 05:09:55;;;;;;;;;;;16.80;99.90;;;;;;5082375;28;19912;-67
2022/08/12 05:12:22;;;;;;;;;;;16.80;99.90;;;;;;5076534;28;20031;-67
2022/08/12 05:14:49;;;;;;;;;;;16.80;99.90;;;;;;5078003;28;19934;-67
2022/08/12 05:17:15;;;;;;;;;;;16.90;99.90;;;;;;5078268;28;19928;-68
2022/08/12 05:19:41;;;;;;;;;;;17.00;99.90;;;;;;5074115;28;19912;-68
2022/08/12 05:22:06;;;;;;;;;;;16.90;99.90;;;;;;5080764;28;19983;-68
2022/08/12 05:24:32;;;;;;;;;;;17.00;99.90;;;;;;5079753;28;19913;-68
2022/08/12 05:26:59;;;;;;;;;;;17.10;99.90;;;;;;5081608;28;19916;-67
2022/08/12 05:29:24;;;;;;;;;;;17.10;99.90;;;;;;5078618;28;20989;-68
2022/08/12 05:31:55;;;;;;;;;;;17.10;99.90;;;;;;5080055;28;20412;-67
2022/08/12 05:34:21;;;;;;;;;;;17.00;99.90;;;;;;5083840;28;19931;-67
2022/08/12 05:36:46;;;;;;;;;;;17.00;99.90;;;;;;5081086;28;19916;-67
2022/08/12 05:39:12;;;;;;;;;;;16.90;99.90;;;;;;5084012;28;19939;-68
2022/08/12 05:41:38;;;;;;;;;;;16.90;99.90;;;;;;5088334;28;19995;-68
2022/08/12 05:44:05;;;;;;;;;;;16.90;99.90;;;;;;5092747;28;19912;-67
2022/08/12 05:46:31;;;;;;;;;;;16.80;99.90;;;;;;5073650;28;19921;-67
2022/08/12 05:48:59;;;;;;;;;;;16.90;99.90;;;;;;5082674;28;20262;-67
2022/08/12 05:51:25;;;;;;;;;;;16.90;99.90;;;;;;5083539;28;19919;-68
2022/08/12 05:53:55;;;;;;;;;;;17.00;99.90;;;;;;5084071;28;20281;-67
2022/08/12 05:56:22;;;;;;;;;;;17.00;99.90;;;;;;5068108;28;19916;-67
2022/08/12 05:58:48;;;;;;;;;;;17.20;99.90;;;;;;5082854;28;20010;-67
2022/08/12 06:01:13;;;;;;;;;;;17.20;99.90;;;;;;5086789;28;19970;-68
2022/08/12 06:03:40;;;;;;;;;;;17.20;99.90;;;;;;5087946;28;20032;-68
2022/08/12 06:06:06;;;;;;;;;;;17.30;99.90;;;;;;5069526;28;19912;-68
2022/08/12 06:08:34;;;;;;;;;;;17.40;99.90;;;;;;5079755;28;19943;-68
2022/08/12 06:11:01;;;;;;;;;;;17.40;99.90;;;;;;5080126;28;19912;-67
2022/08/12 06:13:28;;;;;;;;;;;17.50;99.90;;;;;;5084038;28;19912;-67
2022/08/12 06:15:53;;;;;;;;;;;17.60;99.90;;;;;;5079948;28;20026;-67
2022/08/12 06:18:19;;;;;;;;;;;17.80;99.90;;;;;;5078848;28;20009;-67
2022/08/12 06:20:48;;;;;;;;;;;17.90;99.90;;;;;;5081802;28;19920;-67
2022/08/12 06:23:14;;;;;;;;;;;18.00;99.90;;;;;;5082372;28;20548;-68
2022/08/12 06:25:40;;;;;;;;;;;18.20;99.90;;;;;;5077645;28;20434;-66
2022/08/12 06:28:16;;;;;;;;;;;18.30;99.90;;;;;;5078199;28;20029;-68
2022/08/12 06:30:43;;;;;;;;;;;18.50;99.80;;;;;;5081353;28;20266;-67
2022/08/12 06:33:09;;;;;;;;;;;18.60;98.20;;;;;;5074977;28;19912;-68
2022/08/12 06:35:34;;;;;;;;;;;18.80;97.00;;;;;;5073632;28;20049;-68
2022/08/12 06:38:02;;;;;;;;;;;19.00;96.70;;;;;;5077751;28;20401;-69
2022/08/12 06:43:12;;;;;;;;;;;19.20;95.70;;;;;;5082199;28;19923;-68
2022/08/12 06:45:44;;;;;;;;;;;19.30;95.70;;;;;;5076511;28;20358;-67
2022/08/12 06:48:10;;;;;;;;;;;19.40;94.90;;;;;;5078027;28;19917;-68
2022/08/12 06:50:37;;;;;;;;;;;19.50;94.40;;;;;;5078950;28;19912;-67
2022/08/12 06:53:05;;;;;;;;;;;19.50;94.50;;;;;;5083593;28;19999;-68
2022/08/12 06:55:31;;;;;;;;;;;19.60;94.20;;;;;;5075878;28;20768;-68
2022/08/12 06:58:00;;;;;;;;;;;19.80;93.30;;;;;;5079309;28;19941;-68
2022/08/12 07:00:27;;;;;;;;;;;19.80;92.50;;;;;;5071825;28;19924;-68
2022/08/12 07:02:56;;;;;;;;;;;20.00;91.20;;;;;;5078901;28;19917;-69
2022/08/12 07:05:25;;;;;;;;;;;20.10;90.20;;;;;;5075846;28;19920;-69
2022/08/12 07:08:00;;;;;;;;;;;20.30;88.10;;;;;;5076065;28;19916;-69
2022/08/12 07:10:26;;;;;;;;;;;20.40;86.30;;;;;;5077407;28;22036;-69
2022/08/12 07:12:59;;;;;;;;;;;20.60;85.60;;;;;;5077251;28;20342;-67
2022/08/12 07:15:24;;;;;;;;;;;20.80;82.00;;;;;;5073698;28;20012;-66
2022/08/12 07:17:59;;;;;;;;;;;20.90;81.60;;;;;;5076199;28;19920;-68
2022/08/12 07:20:28;;;;;;;;;;;21.00;79.70;;;;;;5078391;28;19912;-68
2022/08/12 07:22:54;;;;;;;;;;;21.00;78.20;;;;;;5063228;28;19973;-68
2022/08/12 07:25:33;;;;;;;;;;;21.10;78.10;;;;;;5074371;28;20260;-68
2022/08/12 07:28:07;;;;;;;;;;;21.20;77.70;;;;;;5075834;28;20327;-67
2022/08/12 07:30:35;;;;;;;;;;;21.20;76.50;;;;;;5073546;28;19918;-69
2022/08/12 07:33:03;;;;;;;;;;;21.40;77.40;;;;;;5079066;28;19955;-68
2022/08/12 07:35:30;;;;;;;;;;;21.50;75.30;;;;;;5077035;28;19956;-68
2022/08/12 07:37:56;;;;;;;;;;;21.70;74.80;;;;;;5061319;28;19924;-67
2022/08/12 07:40:23;;;;;;;;;;;21.70;74.40;;;;;;5067296;28;19943;-70
2022/08/12 07:42:48;;;;;;;;;;;21.80;74.30;;;;;;5064555;28;19912;-70
2022/08/12 07:45:14;;;;;;;;;;;21.80;73.60;;;;;;5076381;28;19919;-68
2022/08/12 07:47:42;;;;;;;;;;;21.90;74.40;;;;;;5079543;28;19928;-68
2022/08/12 07:50:12;;;;;;;;;;;22.00;74.10;;;;;;5063589;28;19912;-69
2022/08/12 07:52:41;;;;;;;;;;;22.20;73.20;;;;;;5077868;28;19973;-68
2022/08/12 07:55:07;;;;;;;;;;;22.30;72.20;;;;;;5078905;28;20079;-69
2022/08/12 07:57:33;;;;;;;;;;;22.50;72.30;;;;;;5076776;28;19955;-68
2022/08/12 08:00:03;;;;;;;;;;;22.70;71.50;;;;;;5089117;28;20396;-68
2022/08/12 08:02:35;;;;;;;;;;;22.80;70.60;;;;;;5081849;28;20393;-70
2022/08/12 08:05:18;;;;;;;;;;;22.90;69.30;;;;;;5076625;28;19920;-69
2022/08/12 08:07:43;;;;;;;;;;;23.00;69.80;;;;;;5081239;28;19913;-69
2022/08/12 08:10:10;;;;;;;;;;;23.20;68.10;;;;;;5086780;28;19912;-69
2022/08/12 08:15:30;;;;;;;;;;;23.30;68.20;;;;;;5090021;28;20284;-70
2022/08/12 08:18:00;;;;;;;;;;;23.20;68.50;;;;;;5082484;28;19954;-69
2022/08/12 08:20:29;;;;;;;;;;;23.30;69.30;;;;;;5084534;28;19912;-69
2022/08/12 08:22:55;;;;;;;;;;;23.60;68.60;;;;;;5082899;28;19920;-69
2022/08/12 08:25:21;;;;;;;;;;;23.70;65.90;;;;;;5075914;28;19913;-69
2022/08/12 08:27:47;;;;;;;;;;;23.80;66.20;;;;;;5076462;28;20338;-68
2022/08/12 08:30:13;;;;;;;;;;;23.90;65.50;;;;;;5088612;28;20313;-69
2022/08/12 08:32:39;;;;;;;;;;;23.90;65.20;;;;;;5080778;28;19916;-68
2022/08/12 08:35:12;;;;;;;;;;;24.00;65.30;;;;;;5084896;28;20394;-69
2022/08/12 08:37:37;;;;;;;;;;;24.10;64.60;;;;;;5082469;28;19916;-69
2022/08/12 08:42:50;;;;;;;;;;;24.40;63.40;;;;;;5082564;28;19990;-70
2022/08/12 08:45:17;;;;;;;;;;;24.40;63.60;;;;;;5086662;28;19916;-70
2022/08/12 08:47:43;;;;;;;;;;;24.40;63.40;;;;;;5088608;28;20010;-69
2022/08/12 08:50:08;;;;;;;;;;;24.40;63.30;;;;;;5074683;28;19913;-69
2022/08/12 08:52:36;;;;;;;;;;;24.50;63.50;;;;;;5080242;28;19931;-71
2022/08/12 08:55:02;;;;;;;;;;;24.70;62.60;;;;;;5068652;28;19912;-70
2022/08/12 08:57:28;;;;;;;;;;;24.80;61.90;;;;;;5083178;28;19916;-70
2022/08/12 08:59:53;;;;;;;;;;;24.90;61.40;;;;;;5082700;28;19923;-69
2022/08/12 09:02:19;;;;;;;;;;;24.90;61.00;;;;;;5083460;28;20353;-69
2022/08/12 09:04:44;;;;;;;;;;;25.00;60.80;;;;;;5081202;28;19913;-69
2022/08/12 09:07:11;;;;;;;;;;;25.20;59.80;;;;;;5084973;28;19919;-68
2022/08/12 09:09:37;;;;;;;;;;;25.20;59.70;;;;;;5081804;28;19920;-67
2022/08/12 09:14:47;;;;;;;;;;;25.30;59.30;;;;;;5082746;28;19993;-68
2022/08/12 09:17:13;;;;;;;;;;;25.40;59.10;;;;;;5081438;28;19998;-68
2022/08/12 09:19:39;;;;;;;;;;;25.40;58.50;;;;;;5080528;28;19916;-68
2022/08/12 09:22:07;;;;;;;;;;;25.30;58.80;;;;;;5086439;28;19923;-69
2022/08/12 09:24:33;;;;;;;;;;;25.40;59.40;;;;;;5080807;28;19912;-69
2022/08/12 09:26:58;;;;;;;;;;;25.60;58.50;;;;;;5087103;28;20290;-69
2022/08/12 09:29:24;;;;;;;;;;;25.80;57.70;;;;;;5081312;28;19912;-69
2022/08/12 09:31:52;;;;;;;;;;;25.90;57.20;;;;;;5083463;28;20171;-69
2022/08/12 09:34:18;;;;;;;;;;;26.00;57.30;;;;;;5080830;28;19912;-66
2022/08/12 09:36:43;;;;;;;;;;;26.20;56.20;;;;;;5084801;28;19938;-66
2022/08/12 09:39:09;;;;;;;;;;;26.30;56.00;;;;;;5063109;28;20043;-68
2022/08/12 09:41:41;;;;;;;;;;;26.40;55.50;;;;;;5090571;28;19912;-67
2022/08/12 09:46:51;;;;;;;;;;;26.50;54.70;;;;;;5076409;28;20220;-68
2022/08/12 09:49:17;;;;;;;;;;;26.60;53.70;;;;;;5089027;28;19913;-67
2022/08/12 09:51:45;;;;;;;;;;;26.60;52.90;;;;;;5076031;28;19912;-66
2022/08/12 09:54:11;;;;;;;;;;;26.70;53.60;;;;;;5080254;28;20032;-66
2022/08/12 09:56:37;;;;;;;;;;;26.80;53.10;;;;;;5080398;28;20691;-67
2022/08/12 09:59:06;;;;;;;;;;;26.70;52.40;;;;;;5084175;28;20338;-66
2022/08/12 10:01:32;;;;;;;;;;;26.70;53.10;;;;;;5077588;28;19995;-68
2022/08/12 10:03:59;;;;;;;;;;;26.80;52.70;;;;;;5082740;28;19951;-67
2022/08/12 10:06:26;;;;;;;;;;;27.00;52.50;;;;;;5085620;28;19919;-67
2022/08/12 10:08:52;;;;;;;;;;;27.10;52.00;;;;;;5081891;28;19916;-68
2022/08/12 10:14:02;;;;;;;;;;;27.10;51.50;;;;;;5084950;28;19922;-68
2022/08/12 10:16:30;;;;;;;;;;;27.20;51.40;;;;;;5094298;28;19916;-67
2022/08/12 10:19:04;;;;;;;;;;;27.30;51.10;;;;;;5071950;28;20327;-68
2022/08/12 10:21:35;;;;;;;;;;;27.40;51.00;;;;;;5090622;28;19920;-67
2022/08/12 10:24:08;;;;;;;;;;;27.50;50.90;;;;;;5096729;28;19912;-67
2022/08/12 10:32:16;;;;;;;;;;;28.00;49.10;;;;;;5090984;28;19938;-69
2022/08/12 10:34:42;;;;;;;;;;;28.00;48.90;;;;;;5084034;28;19970;-69
2022/08/12 10:37:08;;;;;;;;;;;28.20;48.40;;;;;;5091682;28;19935;-69
2022/08/12 10:39:36;;;;;;;;;;;28.40;47.70;;;;;;5090947;28;19923;-68
2022/08/12 10:44:47;;;;;;;;;;;28.40;47.30;;;;;;5087776;28;19966;-68
2022/08/12 10:47:15;;;;;;;;;;;28.40;46.70;;;;;;5090243;28;19917;-67
2022/08/12 10:49:45;;;;;;;;;;;28.40;46.80;;;;;;5089399;28;19911;-67
2022/08/12 10:52:11;;;;;;;;;;;28.50;46.50;;;;;;5088738;28;19988;-69
2022/08/12 10:54:37;;;;;;;;;;;28.60;45.20;;;;;;5094437;28;20269;-68
2022/08/12 10:57:02;;;;;;;;;;;28.70;45.80;;;;;;5083232;28;20016;-68
2022/08/12 10:59:29;;;;;;;;;;;28.90;44.80;;;;;;5088680;28;20054;-69
2022/08/12 11:01:55;;;;;;;;;;;29.00;44.90;;;;;;5080770;28;20671;-67
2022/08/12 11:04:21;;;;;;;;;;;29.10;42.20;;;;;;5088430;28;20002;-69
2022/08/12 11:06:46;;;;;;;;;;;29.10;43.00;;;;;;5079867;28;19992;-67
2022/08/12 11:09:20;;;;;;;;;;;29.00;43.70;;;;;;5081153;28;19923;-67
2022/08/12 11:11:47;;;;;;;;;;;29.10;43.20;;;;;;5077502;28;19965;-68
2022/08/12 11:14:16;;;;;;;;;;;29.20;42.10;;;;;;5086853;28;19916;-67
2022/08/12 11:16:42;;;;;;;;;;;29.40;42.10;;;;;;5085923;28;19979;-68
2022/08/12 11:19:08;;;;;;;;;;;29.40;41.20;;;;;;5082037;28;19920;-68
2022/08/12 11:21:33;;;;;;;;;;;29.50;39.90;;;;;;5082445;28;19994;-68
2022/08/12 11:23:59;;;;;;;;;;;29.70;40.40;;;;;;5091572;28;20350;-68
2022/08/12 11:26:24;;;;;;;;;;;29.80;38.80;;;;;;5085938;28;19912;-68
2022/08/12 11:28:50;;;;;;;;;;;29.70;37.10;;;;;;5073408;28;19962;-68
2022/08/12 11:31:15;;;;;;;;;;;29.70;36.80;;;;;;5088769;28;19919;-67
2022/08/12 11:33:42;;;;;;;;;;;29.70;37.40;;;;;;5071422;28;20006;-68
2022/08/12 11:36:07;;;;;;;;;;;29.80;37.10;;;;;;5078248;28;19965;-66
2022/08/12 11:38:33;;;;;;;;;;;29.60;39.60;;;;;;5084945;28;20374;-67
2022/08/12 11:40:59;;;;;;;;;;;29.60;39.30;;;;;;5085515;28;20011;-66
2022/08/12 11:43:24;;;;;;;;;;;29.80;39.40;;;;;;5082632;28;19912;-66
2022/08/12 11:45:50;;;;;;;;;;;29.90;37.80;;;;;;5086894;28;19999;-66
2022/08/12 11:48:16;;;;;;;;;;;30.10;35.70;;;;;;5080083;28;20270;-65
2022/08/12 11:50:42;;;;;;;;;;;30.20;36.70;;;;;;5083789;28;20366;-67
2022/08/12 11:53:07;;;;;;;;;;;30.20;34.80;;;;;;5081506;28;19918;-66
2022/08/12 11:55:33;;;;;;;;;;;30.20;35.00;;;;;;5083850;28;19912;-66
2022/08/12 11:57:59;;;;;;;;;;;30.20;35.30;;;;;;5087131;28;19920;-66
2022/08/12 12:00:25;;;;;;;;;;;30.30;35.80;;;;;;5087393;28;19916;-67
2022/08/12 12:02:51;;;;;;;;;;;30.30;35.40;;;;;;5089070;28;19916;-68
2022/08/12 12:05:16;;;;;;;;;;;30.40;35.90;;;;;;5089870;28;20285;-68
2022/08/12 12:07:43;;;;;;;;;;;30.40;35.80;;;;;;5077856;28;19920;-68
2022/08/12 12:10:13;;;;;;;;;;;30.50;36.10;;;;;;5084830;28;20389;-68
2022/08/12 12:12:39;;;;;;;;;;;30.60;35.10;;;;;;5078543;28;19920;-66
2022/08/12 12:15:05;;;;;;;;;;;30.60;35.00;;;;;;5079685;28;19922;-67
2022/08/12 12:17:33;;;;;;;;;;;30.50;34.70;;;;;;5083675;28;19928;-68
2022/08/12 12:19:59;;;;;;;;;;;30.50;34.90;;;;;;5090286;28;20011;-67
2022/08/12 12:22:25;;;;;;;;;;;30.70;34.60;;;;;;5081125;28;19912;-67
2022/08/12 12:24:50;;;;;;;;;;;30.80;33.90;;;;;;5085016;28;19920;-66
2022/08/12 12:27:19;;;;;;;;;;;30.60;34.60;;;;;;5062693;28;19978;-67
2022/08/12 12:29:45;;;;;;;;;;;30.70;34.40;;;;;;5088028;28;19960;-68
2022/08/12 12:32:11;;;;;;;;;;;30.70;35.30;;;;;;5075150;28;19920;-67
2022/08/12 12:34:36;;;;;;;;;;;30.70;32.70;;;;;;5078059;28;19911;-67
2022/08/12 12:37:02;;;;;;;;;;;30.70;32.80;;;;;;5086306;28;19943;-67
2022/08/12 12:39:28;;;;;;;;;;;30.70;32.50;;;;;;5094617;28;20430;-67
2022/08/12 12:41:53;;;;;;;;;;;30.90;33.40;;;;;;5081875;28;19969;-67
2022/08/12 12:44:19;;;;;;;;;;;30.90;34.70;;;;;;5082303;28;20460;-66
2022/08/12 12:46:44;;;;;;;;;;;31.00;29.70;;;;;;5092363;28;20277;-66
2022/08/12 12:49:10;;;;;;;;;;;31.00;29.90;;;;;;5085596;28;20541;-67
2022/08/12 12:51:35;;;;;;;;;;;31.10;29.50;;;;;;5082831;28;20393;-66
2022/08/12 12:54:01;;;;;;;;;;;31.20;29.20;;;;;;5085923;28;19926;-68
2022/08/12 12:56:27;;;;;;;;;;;31.20;29.10;;;;;;5088442;28;19964;-67
2022/08/12 12:58:52;;;;;;;;;;;31.20;28.90;;;;;;5086789;28;21049;-69
2022/08/12 13:01:24;;;;;;;;;;;31.20;29.10;;;;;;5089350;28;19920;-69
2022/08/12 13:03:52;;;;;;;;;;;31.00;28.50;;;;;;5078407;28;19944;-67
2022/08/12 13:06:22;;;;;;;;;;;31.00;28.50;;;;;;5084140;28;19912;-67
2022/08/12 13:08:47;;;;;;;;;;;31.10;28.10;;;;;;5085936;28;20249;-68
2022/08/12 13:11:13;;;;;;;;;;;31.10;27.90;;;;;;5084526;28;19920;-67
2022/08/12 13:13:38;;;;;;;;;;;31.30;29.60;;;;;;5078721;28;19920;-67
2022/08/12 13:16:06;;;;;;;;;;;31.30;28.20;;;;;;5079129;28;19920;-68
2022/08/12 13:18:35;;;;;;;;;;;31.30;28.10;;;;;;5076398;28;19927;-66
2022/08/12 13:21:05;;;;;;;;;;;31.40;27.80;;;;;;5083160;28;19927;-67
2022/08/12 13:23:31;;;;;;;;;;;31.40;27.50;;;;;;5086258;28;19923;-67
2022/08/12 13:25:57;;;;;;;;;;;31.50;27.50;;;;;;5085711;28;19984;-67
2022/08/12 13:28:24;;;;;;;;;;;31.60;28.40;;;;;;5090048;28;19923;-68
2022/08/12 13:30:51;;;;;;;;;;;31.60;27.50;;;;;;5085613;28;19919;-69
2022/08/12 13:33:21;;;;;;;;;;;31.70;28.00;;;;;;5081821;28;19965;-68
2022/08/12 13:35:49;;;;;;;;;;;31.70;26.60;;;;;;5079463;28;20015;-67
2022/08/12 13:38:14;;;;;;;;;;;31.80;26.90;;;;;;5080285;28;19930;-67
2022/08/12 13:40:40;;;;;;;;;;;31.80;27.60;;;;;;5088918;28;19920;-68
2022/08/12 13:43:06;;;;;;;;;;;31.80;27.20;;;;;;5085583;28;19926;-67
2022/08/12 13:45:32;;;;;;;;;;;31.90;29.00;;;;;;5093854;28;19913;-67
2022/08/12 13:47:58;;;;;;;;;;;32.00;26.10;;;;;;5094733;28;19916;-68
2022/08/12 13:50:28;;;;;;;;;;;32.00;27.50;;;;;;5091365;28;20269;-68
2022/08/12 13:52:53;;;;;;;;;;;31.90;26.20;;;;;;5093943;28;20305;-67
2022/08/12 13:55:24;;;;;;;;;;;31.90;28.50;;;;;;5084443;28;20003;-67
2022/08/12 13:57:50;;;;;;;;;;;31.90;25.90;;;;;;5088066;28;20044;-67
2022/08/12 14:00:16;;;;;;;;;;;31.90;25.90;;;;;;5085716;28;19928;-67
2022/08/12 14:02:42;;;;;;;;;;;32.10;26.00;;;;;;5083650;28;19912;-67
2022/08/12 14:05:08;;;;;;;;;;;32.20;25.50;;;;;;5085750;28;19915;-67
2022/08/12 14:07:53;;;;;;;;;;;32.10;26.50;;;;;;5090501;28;19911;-66
2022/08/12 14:10:37;;;;;;;;;;;32.20;25.10;;;;;;5090305;28;19946;-67
2022/08/12 14:13:15;;;;;;;;;;;32.30;25.00;;;;;;5082301;28;19924;-68
2022/08/12 14:15:42;;;;;;;;;;;32.30;25.60;;;;;;5087655;28;19951;-67
2022/08/12 14:18:11;;;;;;;;;;;32.50;25.30;;;;;;5091563;28;19994;-67
2022/08/12 14:20:37;;;;;;;;;;;32.50;25.50;;;;;;5079666;28;19958;-67
2022/08/12 14:23:03;;;;;;;;;;;32.60;24.10;;;;;;5079309;28;19965;-66
2022/08/12 14:25:29;;;;;;;;;;;32.70;24.40;;;;;;5086771;28;19929;-67
2022/08/12 14:28:02;;;;;;;;;;;32.70;24.30;;;;;;5082489;28;20369;-68
2022/08/12 14:30:29;;;;;;;;;;;32.70;23.90;;;;;;5088347;28;19924;-67
2022/08/12 14:32:54;;;;;;;;;;;32.70;24.00;;;;;;5092185;28;20069;-67
2022/08/12 14:35:20;;;;;;;;;;;32.60;24.20;;;;;;5092795;28;19912;-68
2022/08/12 14:37:48;;;;;;;;;;;32.60;24.10;;;;;;5082043;28;20416;-66
2022/08/12 14:40:14;;;;;;;;;;;32.70;24.30;;;;;;5086649;28;19978;-68
2022/08/12 14:42:41;;;;;;;;;;;32.70;23.50;;;;;;5084011;28;20280;-70
2022/08/12 14:45:07;;;;;;;;;;;32.70;23.80;;;;;;5090172;28;19912;-67
2022/08/12 14:47:32;;;;;;;;;;;32.70;24.20;;;;;;5085179;28;19922;-68
2022/08/12 14:49:58;;;;;;;;;;;32.90;23.80;;;;;;5083122;28;19912;-67
2022/08/12 14:52:23;;;;;;;;;;;32.80;23.80;;;;;;5075939;28;20357;-68
2022/08/12 14:54:49;;;;;;;;;;;32.70;23.70;;;;;;5089760;28;19959;-68
2022/08/12 14:57:15;;;;;;;;;;;32.80;24.10;;;;;;5080979;28;19928;-67
2022/08/12 15:02:25;;;;;;;;;;;33.00;23.80;;;;;;5083641;28;20001;-68
2022/08/12 15:05:01;;;;;;;;;;;33.30;23.00;;;;;;5087877;28;19916;-68
2022/08/12 15:07:28;;;;;;;;;;;34.10;22.60;;;;;;5096663;28;19916;-67
2022/08/12 15:09:55;;;;;;;;;;;35.80;21.00;;;;;;5085142;28;19916;-68
2022/08/12 15:12:20;;;;;;;;;;;37.00;19.90;;;;;;5086407;28;19939;-67
2022/08/12 15:14:46;;;;;;;;;;;38.20;19.60;;;;;;5088548;28;20374;-66
2022/08/12 15:17:12;;;;;;;;;;;39.40;17.70;;;;;;5082300;28;19917;-67
2022/08/12 15:19:37;;;;;;;;;;;39.60;16.60;;;;;;5085649;28;19920;-68
2022/08/12 15:22:03;;;;;;;;;;;38.90;17.00;;;;;;5062518;28;19916;-67
2022/08/12 15:24:29;;;;;;;;;;;39.30;15.60;;;;;;5089760;28;19951;-68
2022/08/12 15:26:57;;;;;;;;;;;39.80;15.40;;;;;;5067880;28;19973;-67
2022/08/12 15:29:22;;;;;;;;;;;40.30;14.90;;;;;;5085701;28;20004;-68
2022/08/12 15:31:48;;;;;;;;;;;39.80;14.60;;;;;;5084144;28;20018;-67
2022/08/12 15:34:14;;;;;;;;;;;39.40;14.70;;;;;;5079558;28;19916;-67
2022/08/12 15:36:39;;;;;;;;;;;39.40;14.70;;;;;;5077228;28;19916;-69
2022/08/12 15:39:05;;;;;;;;;;;39.70;14.60;;;;;;5085060;28;19920;-67
2022/08/12 15:41:31;;;;;;;;;;;40.70;14.60;;;;;;5083319;28;19926;-66
2022/08/12 15:43:57;;;;;;;;;;;41.60;13.10;;;;;;5085181;28;19922;-67
2022/08/12 15:46:23;;;;;;;;;;;42.20;13.20;;;;;;5083721;28;19918;-67
2022/08/12 15:48:48;;;;;;;;;;;42.50;12.80;;;;;;5087418;28;19934;-67
2022/08/12 15:51:28;;;;;;;;;;;41.60;11.60;;;;;;5084941;28;20302;-66
2022/08/12 15:54:06;;;;;;;;;;;40.90;11.90;;;;;;5076672;28;19920;-67
2022/08/12 15:56:32;;;;;;;;;;;40.70;12.40;;;;;;5079871;28;19911;-66
2022/08/12 15:58:58;;;;;;;;;;;40.70;12.40;;;;;;5081879;28;19920;-68
2022/08/12 16:01:23;;;;;;;;;;;40.90;12.40;;;;;;5061396;28;19917;-66
2022/08/12 16:03:50;;;;;;;;;;;40.30;12.70;;;;;;5090073;28;20010;-69
2022/08/12 16:06:16;;;;;;;;;;;40.80;12.20;;;;;;5081375;28;19924;-67